sensor_id;sensor_type;location;lat;lon;timestamp;P1;durP1;ratioP1;P2;durP2;ratioP2
76284;SDS011;65096;50.998;7.098;2023-03-08T00:00:50;15.98;;;8.15;;
76284;SDS011;65096;50.998;7.098;2023-03-08T00:03:17;16.30;;;7.40;;
76284;SDS011;65096;50.998;7.098;2023-03-08T00:05:43;18.98;;;8.30;;
76284;SDS011;65096;50.998;7.098;2023-03-08T00:08:10;19.15;;;8.57;;
76284;SDS011;65096;50.998;7.098;2023-03-08T00:10:37;17.10;;;8.38;;
76284;SDS011;65096;50.998;7.098;2023-03-08T00:13:03;17.77;;;8.15;;
76284;SDS011;65096;50.998;7.098;2023-03-08T00:15:31;17.42;;;7.82;;
76284;SDS011;65096;50.998;7.098;2023-03-08T00:17:58;16.73;;;7.53;;
76284;SDS011;65096;50.998;7.098;2023-03-08T00:20:25;16.65;;;7.07;;
76284;SDS011;65096;50.998;7.098;2023-03-08T00:22:51;17.67;;;7.88;;
76284;SDS011;65096;50.998;7.098;2023-03-08T00:25:18;16.70;;;7.75;;
76284;SDS011;65096;50.998;7.098;2023-03-08T00:27:45;15.63;;;7.50;;
76284;SDS011;65096;50.998;7.098;2023-03-08T00:30:12;17.45;;;7.70;;
76284;SDS011;65096;50.998;7.098;2023-03-08T00:32:41;17.00;;;7.10;;
76284;SDS011;65096;50.998;7.098;2023-03-08T00:35:08;16.15;;;6.85;;
76284;SDS011;65096;50.998;7.098;2023-03-08T00:37:34;16.60;;;7.60;;
76284;SDS011;65096;50.998;7.098;2023-03-08T00:40:01;15.93;;;7.03;;
76284;SDS011;65096;50.998;7.098;2023-03-08T00:42:29;15.20;;;7.13;;
76284;SDS011;65096;50.998;7.098;2023-03-08T00:44:56;15.52;;;7.57;;
76284;SDS011;65096;50.998;7.098;2023-03-08T00:47:23;15.15;;;7.07;;
76284;SDS011;65096;50.998;7.098;2023-03-08T00:49:51;15.57;;;7.47;;
76284;SDS011;65096;50.998;7.098;2023-03-08T00:52:18;15.60;;;7.32;;
76284;SDS011;65096;50.998;7.098;2023-03-08T00:54:44;16.90;;;7.55;;
76284;SDS011;65096;50.998;7.098;2023-03-08T00:57:11;14.80;;;6.93;;
76284;SDS011;65096;50.998;7.098;2023-03-08T00:59:38;14.90;;;7.00;;
76284;SDS011;65096;50.998;7.098;2023-03-08T01:02:05;16.25;;;6.97;;
76284;SDS011;65096;50.998;7.098;2023-03-08T01:04:31;16.50;;;7.43;;
76284;SDS011;65096;50.998;7.098;2023-03-08T01:07:00;16.95;;;7.07;;
76284;SDS011;65096;50.998;7.098;2023-03-08T01:09:27;17.80;;;7.63;;
76284;SDS011;65096;50.998;7.098;2023-03-08T01:11:53;16.63;;;7.32;;
76284;SDS011;65096;50.998;7.098;2023-03-08T01:14:20;15.27;;;6.40;;
76284;SDS011;65096;50.998;7.098;2023-03-08T01:16:47;16.13;;;7.15;;
76284;SDS011;65096;50.998;7.098;2023-03-08T01:19:13;16.80;;;7.70;;
76284;SDS011;65096;50.998;7.098;2023-03-08T01:21:40;14.38;;;6.47;;
76284;SDS011;65096;50.998;7.098;2023-03-08T01:24:08;15.82;;;7.50;;
76284;SDS011;65096;50.998;7.098;2023-03-08T01:26:35;17.67;;;7.75;;
76284;SDS011;65096;50.998;7.098;2023-03-08T01:29:01;14.73;;;6.68;;
76284;SDS011;65096;50.998;7.098;2023-03-08T01:31:29;16.17;;;7.72;;
76284;SDS011;65096;50.998;7.098;2023-03-08T01:33:56;16.63;;;7.55;;
76284;SDS011;65096;50.998;7.098;2023-03-08T01:36:24;15.70;;;7.38;;
76284;SDS011;65096;50.998;7.098;2023-03-08T01:38:52;14.35;;;6.60;;
76284;SDS011;65096;50.998;7.098;2023-03-08T01:41:21;15.57;;;7.15;;
76284;SDS011;65096;50.998;7.098;2023-03-08T01:43:49;15.68;;;7.22;;
76284;SDS011;65096;50.998;7.098;2023-03-08T01:46:18;14.40;;;6.93;;
76284;SDS011;65096;50.998;7.098;2023-03-08T01:48:50;18.70;;;7.45;;
76284;SDS011;65096;50.998;7.098;2023-03-08T01:51:21;14.45;;;6.88;;
76284;SDS011;65096;50.998;7.098;2023-03-08T01:53:53;14.30;;;7.45;;
76284;SDS011;65096;50.998;7.098;2023-03-08T01:56:22;18.70;;;7.63;;
76284;SDS011;65096;50.998;7.098;2023-03-08T01:58:51;14.77;;;6.70;;
76284;SDS011;65096;50.998;7.098;2023-03-08T02:01:18;15.25;;;7.07;;
76284;SDS011;65096;50.998;7.098;2023-03-08T02:03:45;14.65;;;6.47;;
76284;SDS011;65096;50.998;7.098;2023-03-08T02:06:13;14.95;;;7.38;;
76284;SDS011;65096;50.998;7.098;2023-03-08T02:08:40;18.08;;;8.35;;
76284;SDS011;65096;50.998;7.098;2023-03-08T02:11:08;16.35;;;7.18;;
76284;SDS011;65096;50.998;7.098;2023-03-08T02:13:38;19.38;;;8.98;;
76284;SDS011;65096;50.998;7.098;2023-03-08T02:16:06;19.88;;;8.23;;
76284;SDS011;65096;50.998;7.098;2023-03-08T02:18:47;17.55;;;7.68;;
76284;SDS011;65096;50.998;7.098;2023-03-08T02:21:15;15.15;;;6.85;;
76284;SDS011;65096;50.998;7.098;2023-03-08T02:23:43;16.33;;;7.57;;
76284;SDS011;65096;50.998;7.098;2023-03-08T02:26:10;16.00;;;7.30;;
76284;SDS011;65096;50.998;7.098;2023-03-08T02:28:36;16.58;;;7.32;;
76284;SDS011;65096;50.998;7.098;2023-03-08T02:31:04;14.60;;;6.97;;
76284;SDS011;65096;50.998;7.098;2023-03-08T02:33:31;13.90;;;6.90;;
76284;SDS011;65096;50.998;7.098;2023-03-08T02:35:59;14.60;;;6.53;;
76284;SDS011;65096;50.998;7.098;2023-03-08T02:38:26;17.00;;;7.25;;
76284;SDS011;65096;50.998;7.098;2023-03-08T02:40:55;14.23;;;7.10;;
76284;SDS011;65096;50.998;7.098;2023-03-08T02:43:22;15.77;;;6.57;;
76284;SDS011;65096;50.998;7.098;2023-03-08T02:45:48;15.80;;;6.95;;
76284;SDS011;65096;50.998;7.098;2023-03-08T02:48:16;13.88;;;6.75;;
76284;SDS011;65096;50.998;7.098;2023-03-08T02:50:46;14.90;;;6.32;;
76284;SDS011;65096;50.998;7.098;2023-03-08T02:53:12;13.90;;;5.88;;
76284;SDS011;65096;50.998;7.098;2023-03-08T02:55:39;16.15;;;6.85;;
76284;SDS011;65096;50.998;7.098;2023-03-08T02:58:08;14.25;;;6.45;;
76284;SDS011;65096;50.998;7.098;2023-03-08T03:00:35;13.13;;;6.40;;
76284;SDS011;65096;50.998;7.098;2023-03-08T03:03:03;14.52;;;6.25;;
76284;SDS011;65096;50.998;7.098;2023-03-08T03:05:29;12.85;;;5.28;;
76284;SDS011;65096;50.998;7.098;2023-03-08T03:07:56;13.80;;;6.47;;
76284;SDS011;65096;50.998;7.098;2023-03-08T03:10:23;14.48;;;6.28;;
76284;SDS011;65096;50.998;7.098;2023-03-08T03:12:51;15.35;;;5.97;;
76284;SDS011;65096;50.998;7.098;2023-03-08T03:15:19;14.35;;;6.10;;
76284;SDS011;65096;50.998;7.098;2023-03-08T03:17:46;14.27;;;6.18;;
76284;SDS011;65096;50.998;7.098;2023-03-08T03:20:12;14.57;;;6.32;;
76284;SDS011;65096;50.998;7.098;2023-03-08T03:22:39;12.95;;;5.55;;
76284;SDS011;65096;50.998;7.098;2023-03-08T03:25:07;11.40;;;5.25;;
76284;SDS011;65096;50.998;7.098;2023-03-08T03:27:34;13.80;;;5.75;;
76284;SDS011;65096;50.998;7.098;2023-03-08T03:30:01;12.60;;;5.68;;
76284;SDS011;65096;50.998;7.098;2023-03-08T03:32:29;14.43;;;6.18;;
76284;SDS011;65096;50.998;7.098;2023-03-08T03:34:56;13.73;;;5.72;;
76284;SDS011;65096;50.998;7.098;2023-03-08T03:37:22;12.80;;;5.80;;
76284;SDS011;65096;50.998;7.098;2023-03-08T03:39:49;13.45;;;5.72;;
76284;SDS011;65096;50.998;7.098;2023-03-08T03:42:16;11.90;;;5.43;;
76284;SDS011;65096;50.998;7.098;2023-03-08T03:44:43;17.38;;;6.85;;
76284;SDS011;65096;50.998;7.098;2023-03-08T03:47:09;13.98;;;6.00;;
76284;SDS011;65096;50.998;7.098;2023-03-08T03:49:37;12.80;;;6.18;;
76284;SDS011;65096;50.998;7.098;2023-03-08T03:52:04;11.75;;;4.57;;
76284;SDS011;65096;50.998;7.098;2023-03-08T03:54:31;13.63;;;5.25;;
76284;SDS011;65096;50.998;7.098;2023-03-08T03:56:58;12.55;;;5.18;;
76284;SDS011;65096;50.998;7.098;2023-03-08T03:59:25;12.30;;;5.45;;
76284;SDS011;65096;50.998;7.098;2023-03-08T04:01:52;12.57;;;5.57;;
76284;SDS011;65096;50.998;7.098;2023-03-08T04:04:19;14.32;;;6.20;;
76284;SDS011;65096;50.998;7.098;2023-03-08T04:06:47;14.68;;;5.53;;
76284;SDS011;65096;50.998;7.098;2023-03-08T04:09:14;12.50;;;5.25;;
76284;SDS011;65096;50.998;7.098;2023-03-08T04:11:42;11.70;;;5.40;;
76284;SDS011;65096;50.998;7.098;2023-03-08T04:14:09;12.90;;;5.38;;
76284;SDS011;65096;50.998;7.098;2023-03-08T04:16:37;13.23;;;5.47;;
76284;SDS011;65096;50.998;7.098;2023-03-08T04:19:05;13.80;;;5.80;;
76284;SDS011;65096;50.998;7.098;2023-03-08T04:21:33;14.63;;;5.93;;
76284;SDS011;65096;50.998;7.098;2023-03-08T04:24:01;12.77;;;4.90;;
76284;SDS011;65096;50.998;7.098;2023-03-08T04:26:28;12.65;;;5.30;;
76284;SDS011;65096;50.998;7.098;2023-03-08T04:28:54;12.77;;;5.60;;
76284;SDS011;65096;50.998;7.098;2023-03-08T04:31:22;12.43;;;5.55;;
76284;SDS011;65096;50.998;7.098;2023-03-08T04:33:50;12.70;;;5.03;;
76284;SDS011;65096;50.998;7.098;2023-03-08T04:36:17;13.07;;;6.50;;
76284;SDS011;65096;50.998;7.098;2023-03-08T04:38:45;13.95;;;5.95;;
76284;SDS011;65096;50.998;7.098;2023-03-08T04:41:14;13.27;;;5.72;;
76284;SDS011;65096;50.998;7.098;2023-03-08T04:43:43;13.43;;;5.60;;
76284;SDS011;65096;50.998;7.098;2023-03-08T04:46:11;14.52;;;6.50;;
76284;SDS011;65096;50.998;7.098;2023-03-08T04:48:38;15.10;;;7.07;;
76284;SDS011;65096;50.998;7.098;2023-03-08T04:51:05;13.23;;;5.47;;
76284;SDS011;65096;50.998;7.098;2023-03-08T04:53:32;11.23;;;5.13;;
76284;SDS011;65096;50.998;7.098;2023-03-08T04:56:00;12.60;;;5.63;;
76284;SDS011;65096;50.998;7.098;2023-03-08T04:58:28;11.38;;;4.72;;
76284;SDS011;65096;50.998;7.098;2023-03-08T05:00:55;10.48;;;4.72;;
76284;SDS011;65096;50.998;7.098;2023-03-08T05:03:23;11.10;;;4.30;;
76284;SDS011;65096;50.998;7.098;2023-03-08T05:05:51;11.32;;;4.80;;
76284;SDS011;65096;50.998;7.098;2023-03-08T05:08:20;10.70;;;4.68;;
76284;SDS011;65096;50.998;7.098;2023-03-08T05:10:47;12.27;;;4.95;;
76284;SDS011;65096;50.998;7.098;2023-03-08T05:13:14;11.27;;;4.95;;
76284;SDS011;65096;50.998;7.098;2023-03-08T05:15:43;12.35;;;5.38;;
76284;SDS011;65096;50.998;7.098;2023-03-08T05:18:09;12.98;;;5.57;;
76284;SDS011;65096;50.998;7.098;2023-03-08T05:20:36;12.85;;;5.82;;
76284;SDS011;65096;50.998;7.098;2023-03-08T05:23:03;12.77;;;5.85;;
76284;SDS011;65096;50.998;7.098;2023-03-08T05:25:29;12.25;;;5.22;;
76284;SDS011;65096;50.998;7.098;2023-03-08T05:27:57;13.15;;;5.20;;
76284;SDS011;65096;50.998;7.098;2023-03-08T05:30:24;12.32;;;5.10;;
76284;SDS011;65096;50.998;7.098;2023-03-08T05:32:52;13.07;;;5.80;;
76284;SDS011;65096;50.998;7.098;2023-03-08T05:35:18;12.85;;;5.82;;
76284;SDS011;65096;50.998;7.098;2023-03-08T05:37:45;13.75;;;5.93;;
76284;SDS011;65096;50.998;7.098;2023-03-08T05:40:12;14.40;;;6.85;;
76284;SDS011;65096;50.998;7.098;2023-03-08T05:42:39;13.50;;;6.10;;
76284;SDS011;65096;50.998;7.098;2023-03-08T05:45:06;13.45;;;6.45;;
76284;SDS011;65096;50.998;7.098;2023-03-08T05:47:33;12.15;;;5.40;;
76284;SDS011;65096;50.998;7.098;2023-03-08T05:50:01;15.13;;;7.03;;
76284;SDS011;65096;50.998;7.098;2023-03-08T05:52:28;12.55;;;5.97;;
76284;SDS011;65096;50.998;7.098;2023-03-08T05:54:55;12.30;;;5.65;;
76284;SDS011;65096;50.998;7.098;2023-03-08T05:57:22;13.35;;;6.25;;
76284;SDS011;65096;50.998;7.098;2023-03-08T05:59:49;15.30;;;7.15;;
76284;SDS011;65096;50.998;7.098;2023-03-08T06:02:15;15.05;;;6.75;;
76284;SDS011;65096;50.998;7.098;2023-03-08T06:04:42;13.52;;;7.05;;
76284;SDS011;65096;50.998;7.098;2023-03-08T06:07:10;13.07;;;5.90;;
76284;SDS011;65096;50.998;7.098;2023-03-08T06:09:37;13.00;;;6.28;;
76284;SDS011;65096;50.998;7.098;2023-03-08T06:12:04;11.43;;;5.60;;
76284;SDS011;65096;50.998;7.098;2023-03-08T06:14:31;12.77;;;5.60;;
76284;SDS011;65096;50.998;7.098;2023-03-08T06:16:58;12.52;;;4.82;;
76284;SDS011;65096;50.998;7.098;2023-03-08T06:19:24;11.63;;;5.25;;
76284;SDS011;65096;50.998;7.098;2023-03-08T06:21:51;12.93;;;5.20;;
76284;SDS011;65096;50.998;7.098;2023-03-08T06:24:19;11.05;;;5.25;;
76284;SDS011;65096;50.998;7.098;2023-03-08T06:26:46;11.95;;;5.03;;
76284;SDS011;65096;50.998;7.098;2023-03-08T06:29:12;11.40;;;5.35;;
76284;SDS011;65096;50.998;7.098;2023-03-08T06:31:39;12.10;;;5.28;;
76284;SDS011;65096;50.998;7.098;2023-03-08T06:34:06;11.55;;;5.15;;
76284;SDS011;65096;50.998;7.098;2023-03-08T06:36:32;11.20;;;5.38;;
76284;SDS011;65096;50.998;7.098;2023-03-08T06:38:59;10.68;;;4.63;;
76284;SDS011;65096;50.998;7.098;2023-03-08T06:41:27;9.02;;;4.40;;
76284;SDS011;65096;50.998;7.098;2023-03-08T06:43:54;8.27;;;3.83;;
76284;SDS011;65096;50.998;7.098;2023-03-08T06:46:21;9.93;;;3.90;;
76284;SDS011;65096;50.998;7.098;2023-03-08T06:48:48;11.23;;;4.70;;
76284;SDS011;65096;50.998;7.098;2023-03-08T06:51:16;9.30;;;4.53;;
76284;SDS011;65096;50.998;7.098;2023-03-08T06:53:43;8.73;;;3.92;;
76284;SDS011;65096;50.998;7.098;2023-03-08T06:56:11;11.05;;;4.68;;
76284;SDS011;65096;50.998;7.098;2023-03-08T06:58:41;9.80;;;4.10;;
76284;SDS011;65096;50.998;7.098;2023-03-08T07:01:08;8.93;;;3.97;;
76284;SDS011;65096;50.998;7.098;2023-03-08T07:03:35;9.13;;;4.13;;
76284;SDS011;65096;50.998;7.098;2023-03-08T07:06:03;8.95;;;3.70;;
76284;SDS011;65096;50.998;7.098;2023-03-08T07:08:31;8.27;;;3.92;;
76284;SDS011;65096;50.998;7.098;2023-03-08T07:10:57;9.35;;;3.90;;
76284;SDS011;65096;50.998;7.098;2023-03-08T07:13:25;9.18;;;3.67;;
76284;SDS011;65096;50.998;7.098;2023-03-08T07:15:54;8.57;;;4.28;;
76284;SDS011;65096;50.998;7.098;2023-03-08T07:18:23;10.55;;;4.53;;
76284;SDS011;65096;50.998;7.098;2023-03-08T07:20:50;9.32;;;4.28;;
76284;SDS011;65096;50.998;7.098;2023-03-08T07:23:18;8.68;;;3.97;;
76284;SDS011;65096;50.998;7.098;2023-03-08T07:25:44;8.63;;;4.03;;
76284;SDS011;65096;50.998;7.098;2023-03-08T07:28:11;8.68;;;4.53;;
76284;SDS011;65096;50.998;7.098;2023-03-08T07:30:38;9.38;;;4.40;;
76284;SDS011;65096;50.998;7.098;2023-03-08T07:33:06;9.20;;;4.13;;
76284;SDS011;65096;50.998;7.098;2023-03-08T07:35:36;9.30;;;4.35;;
76284;SDS011;65096;50.998;7.098;2023-03-08T07:38:03;9.15;;;4.45;;
76284;SDS011;65096;50.998;7.098;2023-03-08T07:40:30;9.80;;;4.80;;
76284;SDS011;65096;50.998;7.098;2023-03-08T07:42:56;11.13;;;4.88;;
76284;SDS011;65096;50.998;7.098;2023-03-08T07:45:24;9.25;;;4.35;;
76284;SDS011;65096;50.998;7.098;2023-03-08T07:47:52;9.80;;;4.82;;
76284;SDS011;65096;50.998;7.098;2023-03-08T07:50:20;9.75;;;4.50;;
76284;SDS011;65096;50.998;7.098;2023-03-08T07:52:47;9.80;;;4.85;;
76284;SDS011;65096;50.998;7.098;2023-03-08T07:55:14;9.98;;;4.63;;
76284;SDS011;65096;50.998;7.098;2023-03-08T07:57:41;9.10;;;4.35;;
76284;SDS011;65096;50.998;7.098;2023-03-08T08:00:08;9.98;;;4.85;;
76284;SDS011;65096;50.998;7.098;2023-03-08T08:02:36;9.55;;;4.82;;
76284;SDS011;65096;50.998;7.098;2023-03-08T08:05:03;10.77;;;4.97;;
76284;SDS011;65096;50.998;7.098;2023-03-08T08:07:32;9.23;;;4.95;;
76284;SDS011;65096;50.998;7.098;2023-03-08T08:09:58;9.00;;;4.65;;
76284;SDS011;65096;50.998;7.098;2023-03-08T08:12:25;10.05;;;4.47;;
76284;SDS011;65096;50.998;7.098;2023-03-08T08:14:52;9.45;;;5.35;;
76284;SDS011;65096;50.998;7.098;2023-03-08T08:17:19;9.30;;;5.15;;
76284;SDS011;65096;50.998;7.098;2023-03-08T08:19:46;9.77;;;5.20;;
76284;SDS011;65096;50.998;7.098;2023-03-08T08:22:13;10.20;;;5.47;;
76284;SDS011;65096;50.998;7.098;2023-03-08T08:24:42;10.32;;;5.30;;
76284;SDS011;65096;50.998;7.098;2023-03-08T08:27:08;10.52;;;5.30;;
76284;SDS011;65096;50.998;7.098;2023-03-08T08:29:35;11.35;;;5.88;;
76284;SDS011;65096;50.998;7.098;2023-03-08T08:32:02;11.18;;;5.18;;
76284;SDS011;65096;50.998;7.098;2023-03-08T08:34:29;10.85;;;4.88;;
76284;SDS011;65096;50.998;7.098;2023-03-08T08:36:56;9.98;;;5.22;;
76284;SDS011;65096;50.998;7.098;2023-03-08T08:39:22;10.68;;;5.53;;
76284;SDS011;65096;50.998;7.098;2023-03-08T08:41:50;9.75;;;5.00;;
76284;SDS011;65096;50.998;7.098;2023-03-08T08:44:17;10.60;;;5.60;;
76284;SDS011;65096;50.998;7.098;2023-03-08T08:46:44;11.45;;;5.55;;
76284;SDS011;65096;50.998;7.098;2023-03-08T08:49:11;10.32;;;5.47;;
76284;SDS011;65096;50.998;7.098;2023-03-08T08:51:37;10.20;;;5.35;;
76284;SDS011;65096;50.998;7.098;2023-03-08T08:54:04;11.98;;;5.43;;
76284;SDS011;65096;50.998;7.098;2023-03-08T08:56:31;10.80;;;5.65;;
76284;SDS011;65096;50.998;7.098;2023-03-08T08:59:00;9.43;;;4.95;;
76284;SDS011;65096;50.998;7.098;2023-03-08T09:01:28;10.38;;;5.45;;
76284;SDS011;65096;50.998;7.098;2023-03-08T09:03:56;10.43;;;5.40;;
76284;SDS011;65096;50.998;7.098;2023-03-08T09:06:23;11.15;;;5.50;;
76284;SDS011;65096;50.998;7.098;2023-03-08T09:08:51;14.73;;;6.90;;
76284;SDS011;65096;50.998;7.098;2023-03-08T09:11:18;18.02;;;7.15;;
76284;SDS011;65096;50.998;7.098;2023-03-08T09:13:46;16.30;;;6.68;;
76284;SDS011;65096;50.998;7.098;2023-03-08T09:16:18;13.63;;;6.20;;
76284;SDS011;65096;50.998;7.098;2023-03-08T09:18:46;11.95;;;6.15;;
76284;SDS011;65096;50.998;7.098;2023-03-08T09:21:13;11.65;;;6.07;;
76284;SDS011;65096;50.998;7.098;2023-03-08T09:23:40;10.70;;;5.85;;
76284;SDS011;65096;50.998;7.098;2023-03-08T09:26:07;12.68;;;6.03;;
76284;SDS011;65096;50.998;7.098;2023-03-08T09:28:34;10.88;;;5.65;;
76284;SDS011;65096;50.998;7.098;2023-03-08T09:31:04;11.00;;;5.97;;
76284;SDS011;65096;50.998;7.098;2023-03-08T09:33:35;11.68;;;5.63;;
76284;SDS011;65096;50.998;7.098;2023-03-08T09:36:02;11.13;;;6.03;;
76284;SDS011;65096;50.998;7.098;2023-03-08T09:38:29;14.98;;;9.07;;
76284;SDS011;65096;50.998;7.098;2023-03-08T09:40:57;12.15;;;5.75;;
76284;SDS011;65096;50.998;7.098;2023-03-08T09:43:38;12.38;;;6.05;;
76284;SDS011;65096;50.998;7.098;2023-03-08T09:46:11;11.23;;;5.95;;
76284;SDS011;65096;50.998;7.098;2023-03-08T09:48:40;10.73;;;5.80;;
76284;SDS011;65096;50.998;7.098;2023-03-08T09:51:11;11.00;;;6.40;;
76284;SDS011;65096;50.998;7.098;2023-03-08T09:53:44;13.50;;;7.25;;
76284;SDS011;65096;50.998;7.098;2023-03-08T09:56:19;12.15;;;6.35;;
76284;SDS011;65096;50.998;7.098;2023-03-08T09:58:52;12.05;;;6.15;;
76284;SDS011;65096;50.998;7.098;2023-03-08T10:01:26;13.23;;;7.35;;
76284;SDS011;65096;50.998;7.098;2023-03-08T10:04:03;10.85;;;5.55;;
76284;SDS011;65096;50.998;7.098;2023-03-08T10:06:43;12.30;;;6.78;;
76284;SDS011;65096;50.998;7.098;2023-03-08T10:09:20;11.20;;;6.82;;
76284;SDS011;65096;50.998;7.098;2023-03-08T10:11:57;13.88;;;7.15;;
76284;SDS011;65096;50.998;7.098;2023-03-08T10:14:29;11.82;;;5.88;;
76284;SDS011;65096;50.998;7.098;2023-03-08T10:17:00;11.90;;;6.20;;
76284;SDS011;65096;50.998;7.098;2023-03-08T10:19:34;11.48;;;6.63;;
76284;SDS011;65096;50.998;7.098;2023-03-08T10:22:06;11.65;;;6.65;;
76284;SDS011;65096;50.998;7.098;2023-03-08T10:24:40;12.52;;;6.55;;
76284;SDS011;65096;50.998;7.098;2023-03-08T10:27:14;14.75;;;6.75;;
76284;SDS011;65096;50.998;7.098;2023-03-08T10:29:49;13.70;;;7.28;;
76284;SDS011;65096;50.998;7.098;2023-03-08T10:32:17;13.00;;;6.88;;
76284;SDS011;65096;50.998;7.098;2023-03-08T10:34:45;12.23;;;6.78;;
76284;SDS011;65096;50.998;7.098;2023-03-08T10:37:13;14.10;;;7.00;;
76284;SDS011;65096;50.998;7.098;2023-03-08T10:39:47;13.73;;;7.38;;
76284;SDS011;65096;50.998;7.098;2023-03-08T10:42:18;13.48;;;7.25;;
76284;SDS011;65096;50.998;7.098;2023-03-08T10:44:52;14.25;;;7.20;;
76284;SDS011;65096;50.998;7.098;2023-03-08T10:47:21;13.73;;;7.18;;
76284;SDS011;65096;50.998;7.098;2023-03-08T10:50:03;12.68;;;6.25;;
76284;SDS011;65096;50.998;7.098;2023-03-08T10:52:31;12.27;;;6.57;;
76284;SDS011;65096;50.998;7.098;2023-03-08T10:55:02;10.52;;;5.63;;
76284;SDS011;65096;50.998;7.098;2023-03-08T10:57:30;10.93;;;5.82;;
76284;SDS011;65096;50.998;7.098;2023-03-08T10:59:59;12.20;;;7.00;;
76284;SDS011;65096;50.998;7.098;2023-03-08T11:02:37;14.63;;;6.68;;
76284;SDS011;65096;50.998;7.098;2023-03-08T11:05:15;11.23;;;5.80;;
76284;SDS011;65096;50.998;7.098;2023-03-08T11:07:49;12.05;;;6.80;;
76284;SDS011;65096;50.998;7.098;2023-03-08T11:10:17;13.05;;;6.43;;
76284;SDS011;65096;50.998;7.098;2023-03-08T11:12:48;10.23;;;5.25;;
76284;SDS011;65096;50.998;7.098;2023-03-08T11:15:25;12.05;;;6.50;;
76284;SDS011;65096;50.998;7.098;2023-03-08T11:17:57;14.80;;;7.22;;
76284;SDS011;65096;50.998;7.098;2023-03-08T11:20:30;12.05;;;5.78;;
76284;SDS011;65096;50.998;7.098;2023-03-08T11:23:09;13.73;;;6.43;;
76284;SDS011;65096;50.998;7.098;2023-03-08T11:25:43;15.02;;;6.55;;
76284;SDS011;65096;50.998;7.098;2023-03-08T11:28:16;13.43;;;6.20;;
76284;SDS011;65096;50.998;7.098;2023-03-08T11:30:54;12.27;;;6.95;;
76284;SDS011;65096;50.998;7.098;2023-03-08T11:33:38;8.52;;;3.65;;
76284;SDS011;65096;50.998;7.098;2023-03-08T11:36:29;12.77;;;6.30;;
76284;SDS011;65096;50.998;7.098;2023-03-08T11:39:03;15.00;;;6.70;;
76284;SDS011;65096;50.998;7.098;2023-03-08T11:41:39;12.70;;;6.18;;
76284;SDS011;65096;50.998;7.098;2023-03-08T11:44:31;12.57;;;6.45;;
76284;SDS011;65096;50.998;7.098;2023-03-08T11:47:23;15.57;;;6.80;;
76284;SDS011;65096;50.998;7.098;2023-03-08T11:50:03;11.02;;;5.65;;
76284;SDS011;65096;50.998;7.098;2023-03-08T11:52:38;12.85;;;7.03;;
76284;SDS011;65096;50.998;7.098;2023-03-08T11:55:22;12.57;;;6.25;;
76284;SDS011;65096;50.998;7.098;2023-03-08T11:58:09;11.27;;;5.65;;
76284;SDS011;65096;50.998;7.098;2023-03-08T12:00:40;11.38;;;5.57;;
76284;SDS011;65096;50.998;7.098;2023-03-08T12:03:11;10.68;;;5.72;;
76284;SDS011;65096;50.998;7.098;2023-03-08T12:05:43;11.90;;;6.18;;
76284;SDS011;65096;50.998;7.098;2023-03-08T12:08:15;10.38;;;5.75;;
76284;SDS011;65096;50.998;7.098;2023-03-08T12:10:48;10.88;;;5.72;;
76284;SDS011;65096;50.998;7.098;2023-03-08T12:13:22;10.75;;;5.80;;
76284;SDS011;65096;50.998;7.098;2023-03-08T12:15:54;11.68;;;6.18;;
76284;SDS011;65096;50.998;7.098;2023-03-08T12:18:31;10.07;;;5.13;;
76284;SDS011;65096;50.998;7.098;2023-03-08T12:21:06;11.70;;;6.10;;
76284;SDS011;65096;50.998;7.098;2023-03-08T12:23:46;12.50;;;6.38;;
76284;SDS011;65096;50.998;7.098;2023-03-08T12:26:24;10.23;;;5.28;;
76284;SDS011;65096;50.998;7.098;2023-03-08T12:28:55;9.48;;;5.07;;
76284;SDS011;65096;50.998;7.098;2023-03-08T12:31:27;10.00;;;5.85;;
76284;SDS011;65096;50.998;7.098;2023-03-08T12:33:57;11.45;;;5.90;;
76284;SDS011;65096;50.998;7.098;2023-03-08T12:36:34;12.15;;;6.82;;
76284;SDS011;65096;50.998;7.098;2023-03-08T12:39:07;12.48;;;7.00;;
76284;SDS011;65096;50.998;7.098;2023-03-08T12:41:55;10.68;;;6.28;;
76284;SDS011;65096;50.998;7.098;2023-03-08T12:44:27;11.88;;;6.82;;
76284;SDS011;65096;50.998;7.098;2023-03-08T12:46:56;11.18;;;6.03;;
76284;SDS011;65096;50.998;7.098;2023-03-08T12:49:26;12.40;;;6.68;;
76284;SDS011;65096;50.998;7.098;2023-03-08T12:51:56;12.68;;;6.05;;
76284;SDS011;65096;50.998;7.098;2023-03-08T12:54:28;11.80;;;6.65;;
76284;SDS011;65096;50.998;7.098;2023-03-08T12:56:57;13.02;;;6.97;;
76284;SDS011;65096;50.998;7.098;2023-03-08T12:59:36;11.90;;;6.25;;
76284;SDS011;65096;50.998;7.098;2023-03-08T13:02:22;11.88;;;6.40;;
76284;SDS011;65096;50.998;7.098;2023-03-08T13:07:59;13.10;;;6.30;;
76284;SDS011;65096;50.998;7.098;2023-03-08T13:10:52;12.10;;;6.25;;
76284;SDS011;65096;50.998;7.098;2023-03-08T13:13:26;13.60;;;7.30;;
76284;SDS011;65096;50.998;7.098;2023-03-08T13:16:06;12.88;;;6.82;;
76284;SDS011;65096;50.998;7.098;2023-03-08T13:18:44;11.82;;;6.65;;
76284;SDS011;65096;50.998;7.098;2023-03-08T13:21:17;12.82;;;7.25;;
76284;SDS011;65096;50.998;7.098;2023-03-08T13:23:53;10.90;;;5.90;;
76284;SDS011;65096;50.998;7.098;2023-03-08T13:26:28;12.27;;;7.07;;
76284;SDS011;65096;50.998;7.098;2023-03-08T13:29:11;10.88;;;5.85;;
76284;SDS011;65096;50.998;7.098;2023-03-08T13:31:40;13.27;;;7.35;;
76284;SDS011;65096;50.998;7.098;2023-03-08T13:34:21;13.90;;;7.32;;
76284;SDS011;65096;50.998;7.098;2023-03-08T13:36:50;10.98;;;6.35;;
76284;SDS011;65096;50.998;7.098;2023-03-08T13:39:17;12.15;;;6.22;;
76284;SDS011;65096;50.998;7.098;2023-03-08T13:41:47;11.93;;;6.63;;
76284;SDS011;65096;50.998;7.098;2023-03-08T13:44:14;15.07;;;6.85;;
76284;SDS011;65096;50.998;7.098;2023-03-08T13:46:43;11.43;;;6.63;;
76284;SDS011;65096;50.998;7.098;2023-03-08T13:49:14;11.65;;;6.70;;
76284;SDS011;65096;50.998;7.098;2023-03-08T13:51:43;11.73;;;6.88;;
76284;SDS011;65096;50.998;7.098;2023-03-08T13:54:13;10.88;;;5.90;;
76284;SDS011;65096;50.998;7.098;2023-03-08T13:56:42;11.52;;;6.45;;
76284;SDS011;65096;50.998;7.098;2023-03-08T13:59:13;11.30;;;6.47;;
76284;SDS011;65096;50.998;7.098;2023-03-08T14:01:47;11.43;;;6.57;;
76284;SDS011;65096;50.998;7.098;2023-03-08T14:04:15;11.10;;;6.47;;
76284;SDS011;65096;50.998;7.098;2023-03-08T14:06:47;10.23;;;6.00;;
76284;SDS011;65096;50.998;7.098;2023-03-08T14:09:15;11.90;;;6.80;;
76284;SDS011;65096;50.998;7.098;2023-03-08T14:11:43;13.88;;;7.43;;
76284;SDS011;65096;50.998;7.098;2023-03-08T14:14:15;12.35;;;6.55;;
76284;SDS011;65096;50.998;7.098;2023-03-08T14:16:50;11.75;;;6.18;;
76284;SDS011;65096;50.998;7.098;2023-03-08T14:19:20;11.88;;;6.97;;
76284;SDS011;65096;50.998;7.098;2023-03-08T14:21:50;10.80;;;5.97;;
76284;SDS011;65096;50.998;7.098;2023-03-08T14:24:20;10.60;;;5.68;;
76284;SDS011;65096;50.998;7.098;2023-03-08T14:26:52;11.77;;;6.05;;
76284;SDS011;65096;50.998;7.098;2023-03-08T14:29:23;10.32;;;5.72;;
76284;SDS011;65096;50.998;7.098;2023-03-08T14:31:55;11.00;;;6.10;;
76284;SDS011;65096;50.998;7.098;2023-03-08T14:34:48;12.05;;;6.78;;
76284;SDS011;65096;50.998;7.098;2023-03-08T14:37:16;10.73;;;6.22;;
76284;SDS011;65096;50.998;7.098;2023-03-08T14:39:48;11.00;;;6.03;;
76284;SDS011;65096;50.998;7.098;2023-03-08T14:42:17;12.00;;;5.75;;
76284;SDS011;65096;50.998;7.098;2023-03-08T14:44:52;10.07;;;5.28;;
76284;SDS011;65096;50.998;7.098;2023-03-08T14:47:22;12.05;;;6.45;;
76284;SDS011;65096;50.998;7.098;2023-03-08T14:49:54;11.77;;;5.93;;
76284;SDS011;65096;50.998;7.098;2023-03-08T14:52:25;11.95;;;6.00;;